createdAt,value
2024-02-02T00:01:12.456Z,100.00
2024-02-02T00:03:40.388Z,100.00
2024-02-02T00:06:09.000Z,100.00
2024-02-02T00:08:36.852Z,100.00
2024-02-02T00:11:06.317Z,100.00
2024-02-02T00:13:34.144Z,100.00
2024-02-02T00:16:01.241Z,100.00
2024-02-02T00:18:28.884Z,100.00
2024-02-02T00:20:55.946Z,100.00
2024-02-02T00:23:25.328Z,100.00
2024-02-02T00:25:52.812Z,100.00
2024-02-02T00:28:21.708Z,100.00
2024-02-02T00:30:48.838Z,100.00
2024-02-02T00:33:16.498Z,100.00
2024-02-02T00:35:44.107Z,100.00
2024-02-02T00:38:12.668Z,100.00
2024-02-02T00:40:39.917Z,100.00
2024-02-02T00:43:07.210Z,100.00
2024-02-02T00:45:36.423Z,100.00
2024-02-02T00:48:05.960Z,100.00
2024-02-02T00:50:35.021Z,100.00
2024-02-02T00:53:01.971Z,100.00
2024-02-02T00:55:31.215Z,100.00
2024-02-02T00:57:58.757Z,100.00
2024-02-02T01:00:26.201Z,100.00
2024-02-02T01:02:55.474Z,100.00
2024-02-02T01:05:23.081Z,100.00
2024-02-02T01:07:50.209Z,100.00
2024-02-02T01:10:17.534Z,100.00
2024-02-02T01:12:45.289Z,100.00
2024-02-02T01:15:12.899Z,100.00
2024-02-02T01:17:41.962Z,100.00
2024-02-02T01:20:14.036Z,100.00
2024-02-02T01:22:44.157Z,100.00
2024-02-02T01:25:11.963Z,100.00
2024-02-02T01:27:40.391Z,100.00
2024-02-02T01:30:09.714Z,100.00
2024-02-02T01:32:37.057Z,100.00
2024-02-02T01:35:04.634Z,100.00
2024-02-02T01:37:33.878Z,100.00
2024-02-02T01:40:01.350Z,100.00
2024-02-02T01:42:28.740Z,100.00
2024-02-02T01:44:57.465Z,100.00
2024-02-02T01:47:24.674Z,100.00
2024-02-02T01:49:52.186Z,100.00
2024-02-02T01:52:19.503Z,100.00
2024-02-02T01:54:50.164Z,100.00
2024-02-02T01:57:17.430Z,100.00
2024-02-02T01:59:44.957Z,100.00
2024-02-02T02:02:12.115Z,100.00
2024-02-02T02:04:41.081Z,100.00
2024-02-02T02:07:08.906Z,100.00
2024-02-02T02:09:36.526Z,100.00
2024-02-02T02:12:08.365Z,100.00
2024-02-02T02:14:35.913Z,100.00
2024-02-02T02:17:04.008Z,100.00
2024-02-02T02:19:31.679Z,100.00
2024-02-02T02:22:01.121Z,100.00
2024-02-02T02:24:28.841Z,100.00
2024-02-02T02:26:56.439Z,100.00
2024-02-02T02:29:26.158Z,100.00
2024-02-02T02:31:53.859Z,100.00
2024-02-02T02:34:22.957Z,100.00
2024-02-02T02:36:50.645Z,100.00
2024-02-02T02:39:20.206Z,100.00
2024-02-02T02:41:47.422Z,100.00
2024-02-02T02:44:14.692Z,100.00
2024-02-02T02:46:42.316Z,100.00
2024-02-02T02:49:09.653Z,100.00
2024-02-02T02:51:37.256Z,100.00
2024-02-02T02:54:04.844Z,100.00
2024-02-02T02:56:33.652Z,100.00
2024-02-02T02:59:03.148Z,100.00
2024-02-02T03:01:30.589Z,100.00
2024-02-02T03:03:57.877Z,100.00
2024-02-02T03:06:25.106Z,100.00
2024-02-02T03:08:52.609Z,100.00
2024-02-02T03:11:19.937Z,100.00
2024-02-02T03:13:49.496Z,100.00
2024-02-02T03:16:16.640Z,100.00
2024-02-02T03:18:45.721Z,100.00
2024-02-02T03:21:13.835Z,100.00
2024-02-02T03:23:40.966Z,100.00
2024-02-02T03:26:08.635Z,100.00
2024-02-02T03:28:35.929Z,100.00
2024-02-02T03:31:08.157Z,100.00
2024-02-02T03:33:36.009Z,100.00
2024-02-02T03:36:03.256Z,100.00
2024-02-02T03:38:30.856Z,100.00
2024-02-02T03:40:58.114Z,100.00
2024-02-02T03:43:25.679Z,100.00
2024-02-02T03:45:52.926Z,100.00
2024-02-02T03:48:22.304Z,100.00
2024-02-02T03:50:49.515Z,100.00
2024-02-02T03:53:17.003Z,100.00
2024-02-02T03:55:45.983Z,100.00
2024-02-02T03:58:14.871Z,100.00
2024-02-02T04:00:42.432Z,100.00
2024-02-02T04:03:09.822Z,100.00
2024-02-02T04:05:39.078Z,100.00
2024-02-02T04:08:07.618Z,100.00
2024-02-02T04:10:34.869Z,100.00
2024-02-02T04:13:02.114Z,100.00
2024-02-02T04:15:32.919Z,100.00
2024-02-02T04:18:04.168Z,100.00
2024-02-02T04:20:31.606Z,100.00
2024-02-02T04:23:01.018Z,100.00
2024-02-02T04:25:28.520Z,100.00
2024-02-02T04:27:56.297Z,100.00
2024-02-02T04:30:23.614Z,100.00
2024-02-02T04:32:51.325Z,100.00
2024-02-02T04:35:18.895Z,100.00
2024-02-02T04:37:47.211Z,100.00
2024-02-02T04:40:16.251Z,100.00
2024-02-02T04:42:45.554Z,100.00
2024-02-02T04:45:13.062Z,100.00
2024-02-02T04:47:40.481Z,100.00
2024-02-02T04:50:08.405Z,100.00
2024-02-02T04:52:35.959Z,100.00
2024-02-02T04:55:03.730Z,100.00
2024-02-02T04:57:32.920Z,100.00
2024-02-02T05:00:00.688Z,100.00
2024-02-02T05:02:27.872Z,100.00
2024-02-02T05:04:54.969Z,100.00
2024-02-02T05:07:22.192Z,100.00
2024-02-02T05:09:49.251Z,100.00
2024-02-02T05:12:17.078Z,100.00
2024-02-02T05:14:47.905Z,100.00
2024-02-02T05:17:15.186Z,100.00
2024-02-02T05:19:42.783Z,100.00
2024-02-02T05:22:10.087Z,100.00
2024-02-02T05:24:45.076Z,100.00
2024-02-02T05:27:14.050Z,100.00
2024-02-02T05:29:41.781Z,100.00
2024-02-02T05:32:10.995Z,100.00
2024-02-02T05:34:38.685Z,100.00
2024-02-02T05:37:05.965Z,100.00
2024-02-02T05:39:33.635Z,100.00
2024-02-02T05:42:01.733Z,100.00
2024-02-02T05:44:29.303Z,100.00
2024-02-02T05:46:56.834Z,100.00
2024-02-02T05:49:26.826Z,100.00
2024-02-02T05:51:54.495Z,100.00
2024-02-02T05:54:23.742Z,100.00
2024-02-02T05:56:51.968Z,100.00
2024-02-02T05:59:19.140Z,100.00
2024-02-02T06:01:47.084Z,100.00
2024-02-02T06:04:14.696Z,100.00
2024-02-02T06:06:43.831Z,100.00
2024-02-02T06:09:11.329Z,100.00
2024-02-02T06:11:39.202Z,100.00
2024-02-02T06:14:07.096Z,100.00
2024-02-02T06:16:34.462Z,100.00
2024-02-02T06:19:01.668Z,100.00
2024-02-02T06:21:29.466Z,100.00
2024-02-02T06:23:58.897Z,100.00
2024-02-02T06:26:26.318Z,100.00
2024-02-02T06:28:53.796Z,100.00
2024-02-02T06:31:20.933Z,100.00
2024-02-02T06:33:49.138Z,100.00
2024-02-02T06:36:17.161Z,100.00
2024-02-02T06:38:44.504Z,100.00
2024-02-02T06:41:13.266Z,100.00
2024-02-02T06:43:40.442Z,100.00
2024-02-02T06:46:08.019Z,100.00
2024-02-02T06:48:36.171Z,100.00
2024-02-02T06:51:05.397Z,100.00
2024-02-02T06:53:32.749Z,100.00
2024-02-02T06:56:00.488Z,100.00
2024-02-02T06:58:44.298Z,100.00
2024-02-02T07:01:12.571Z,100.00
2024-02-02T07:03:41.627Z,100.00
2024-02-02T07:06:13.479Z,100.00
2024-02-02T07:08:41.035Z,100.00
2024-02-02T07:11:43.644Z,100.00
2024-02-02T07:14:34.115Z,100.00
2024-02-02T07:17:03.248Z,100.00
2024-02-02T07:19:41.571Z,100.00
2024-02-02T07:22:23.327Z,100.00
2024-02-02T07:24:51.209Z,100.00
2024-02-02T07:27:29.543Z,100.00
2024-02-02T07:29:58.620Z,100.00
2024-02-02T07:32:27.418Z,100.00
2024-02-02T07:34:57.770Z,100.00
2024-02-02T07:37:46.467Z,100.00
2024-02-02T07:40:53.374Z,100.00
2024-02-02T07:43:21.137Z,100.00
2024-02-02T07:45:49.986Z,100.00
2024-02-02T07:48:17.732Z,100.00
2024-02-02T07:50:46.905Z,100.00
2024-02-02T07:53:14.049Z,100.00
2024-02-02T07:55:41.582Z,100.00
2024-02-02T07:58:09.612Z,100.00
2024-02-02T08:00:37.325Z,100.00
2024-02-02T08:03:10.565Z,100.00
2024-02-02T08:05:40.216Z,100.00
2024-02-02T08:08:07.924Z,100.00
2024-02-02T08:10:35.819Z,100.00
2024-02-02T08:13:04.361Z,100.00
2024-02-02T08:15:32.166Z,100.00
2024-02-02T08:18:02.011Z,100.00
2024-02-02T08:20:33.511Z,100.00
2024-02-02T08:23:01.264Z,100.00
2024-02-02T08:25:31.279Z,100.00
2024-02-02T08:27:59.239Z,100.00
2024-02-02T08:30:26.839Z,100.00
2024-02-02T08:32:54.536Z,100.00
2024-02-02T08:35:24.930Z,100.00
2024-02-02T08:37:58.620Z,100.00
2024-02-02T08:40:36.685Z,100.00
2024-02-02T08:43:05.555Z,100.00
2024-02-02T08:46:14.747Z,100.00
2024-02-02T08:48:44.513Z,100.00
2024-02-02T08:51:53.231Z,85.67
2024-02-02T08:54:50.119Z,66.75
2024-02-02T08:57:37.302Z,64.82
2024-02-02T09:00:28.973Z,57.55
2024-02-02T09:03:06.530Z,52.09
2024-02-02T09:06:16.602Z,52.58
2024-02-02T09:08:44.074Z,58.62
2024-02-02T09:11:21.605Z,54.61
2024-02-02T09:13:50.085Z,58.56
2024-02-02T09:16:19.305Z,64.42
2024-02-02T09:18:55.112Z,71.72
2024-02-02T09:21:29.794Z,85.41
2024-02-02T09:23:57.135Z,94.96
2024-02-02T09:26:36.827Z,83.28
2024-02-02T09:29:04.610Z,66.21
2024-02-02T09:31:34.088Z,55.54
2024-02-02T09:34:06.422Z,48.06
2024-02-02T09:36:33.860Z,48.53
2024-02-02T09:39:06.226Z,47.61
2024-02-02T09:42:08.852Z,45.22
2024-02-02T09:44:57.209Z,42.05
2024-02-02T09:47:46.018Z,37.98
2024-02-02T09:50:33.836Z,38.09
2024-02-02T09:53:49.154Z,37.76
2024-02-02T09:56:26.154Z,37.19
2024-02-02T09:59:00.447Z,34.85
2024-02-02T10:01:49.815Z,33.30
2024-02-02T10:04:32.536Z,34.46
2024-02-02T10:07:13.297Z,36.19
2024-02-02T10:09:59.703Z,37.98
2024-02-02T10:12:36.850Z,40.51
2024-02-02T10:15:32.534Z,41.65
2024-02-02T10:18:19.713Z,40.61
2024-02-02T10:20:54.059Z,36.05
2024-02-02T10:23:46.812Z,34.70
2024-02-02T10:26:30.716Z,31.76
2024-02-02T10:29:05.649Z,29.99
2024-02-02T10:31:41.962Z,28.79
2024-02-02T10:34:32.765Z,27.34
2024-02-02T10:37:16.238Z,28.03
2024-02-02T10:40:03.446Z,29.36
2024-02-02T10:42:44.954Z,28.89
2024-02-02T10:45:20.323Z,27.22
2024-02-02T10:48:00.084Z,27.07
2024-02-02T10:50:41.589Z,27.04
2024-02-02T10:53:19.869Z,25.46
2024-02-02T10:56:04.050Z,26.04
2024-02-02T10:58:40.084Z,25.36
2024-02-02T11:01:15.703Z,24.88
2024-02-02T11:03:53.813Z,24.55
2024-02-02T11:06:30.335Z,24.06
2024-02-02T11:09:09.177Z,23.85
2024-02-02T11:11:43.108Z,22.99
2024-02-02T11:14:25.499Z,23.29
2024-02-02T11:17:00.753Z,22.68
2024-02-02T11:19:52.272Z,22.58
2024-02-02T11:22:26.672Z,22.30
2024-02-02T11:25:01.524Z,22.29
2024-02-02T11:27:38.848Z,21.68
2024-02-02T11:30:07.701Z,20.84
2024-02-02T11:33:01.535Z,22.21
2024-02-02T11:35:35.461Z,23.36
2024-02-02T11:38:25.867Z,24.13
2024-02-02T11:40:54.089Z,23.20
2024-02-02T11:43:22.850Z,23.14
2024-02-02T11:45:54.077Z,22.86
2024-02-02T11:48:32.156Z,21.82
2024-02-02T11:51:01.313Z,23.49
2024-02-02T11:53:37.982Z,24.16
2024-02-02T11:56:11.410Z,23.18
2024-02-02T11:58:42.202Z,23.25
2024-02-02T12:01:27.597Z,24.23
2024-02-02T12:04:11.480Z,24.03
2024-02-02T12:06:46.732Z,23.86
2024-02-02T12:09:23.611Z,26.06
2024-02-02T12:11:55.044Z,29.47
2024-02-02T12:14:30.722Z,32.17
2024-02-02T12:17:00.116Z,35.13
2024-02-02T12:19:28.570Z,37.38
2024-02-02T12:21:56.375Z,38.62
2024-02-02T12:24:26.006Z,39.97
2024-02-02T12:26:53.258Z,41.04
2024-02-02T12:29:20.536Z,43.00
2024-02-02T12:31:48.171Z,45.37
2024-02-02T12:34:16.524Z,47.23
2024-02-02T12:36:44.212Z,49.13
2024-02-02T12:39:12.032Z,50.95
2024-02-02T12:41:41.574Z,52.71
2024-02-02T12:44:08.936Z,53.03
2024-02-02T12:46:43.437Z,54.44
2024-02-02T12:49:11.345Z,55.00
2024-02-02T12:51:40.615Z,56.50
2024-02-02T12:54:10.237Z,58.11
2024-02-02T12:56:38.129Z,57.44
2024-02-02T12:59:07.651Z,57.38
2024-02-02T13:01:35.787Z,57.00
2024-02-02T13:04:03.608Z,56.15
2024-02-02T13:06:31.414Z,56.19
2024-02-02T13:09:25.263Z,55.04
2024-02-02T13:11:54.151Z,55.65
2024-02-02T13:14:34.877Z,55.06
2024-02-02T13:17:10.088Z,55.03
2024-02-02T13:19:40.672Z,55.40
2024-02-02T13:22:18.537Z,54.79
2024-02-02T13:24:52.794Z,55.07
2024-02-02T13:27:27.855Z,55.52
2024-02-02T13:30:00.769Z,55.54
2024-02-02T13:32:30.913Z,55.60
2024-02-02T13:34:59.850Z,55.54
2024-02-02T13:37:27.421Z,55.25
2024-02-02T13:39:55.852Z,55.42
2024-02-02T13:42:24.980Z,54.32
2024-02-02T13:44:52.500Z,54.98
2024-02-02T13:47:23.109Z,54.77
2024-02-02T13:50:00.808Z,55.38
2024-02-02T13:52:29.529Z,57.20
2024-02-02T13:54:56.745Z,56.83
2024-02-02T13:57:25.082Z,58.05
2024-02-02T13:59:55.816Z,59.45
2024-02-02T14:02:24.904Z,60.20
2024-02-02T14:04:53.777Z,60.44
2024-02-02T14:07:21.583Z,60.89
2024-02-02T14:10:01.155Z,60.79
2024-02-02T14:12:28.895Z,62.82
2024-02-02T14:14:58.007Z,62.54
2024-02-02T14:17:27.984Z,62.06
2024-02-02T14:20:02.322Z,61.64
2024-02-02T14:22:30.142Z,62.19
2024-02-02T14:24:57.582Z,61.28
2024-02-02T14:27:35.560Z,62.43
2024-02-02T14:30:05.006Z,61.75
2024-02-02T14:32:34.510Z,61.50
2024-02-02T14:35:03.186Z,62.18
2024-02-02T14:37:30.651Z,61.55
2024-02-02T14:39:58.101Z,63.20
2024-02-02T14:42:25.349Z,63.73
2024-02-02T14:44:52.978Z,64.54
2024-02-02T14:47:20.676Z,67.35
2024-02-02T14:49:50.173Z,68.58
2024-02-02T14:52:18.030Z,70.16
2024-02-02T14:54:45.604Z,70.67
2024-02-02T14:57:13.313Z,71.93
2024-02-02T14:59:40.668Z,70.88
2024-02-02T15:02:08.214Z,72.13
2024-02-02T15:04:35.828Z,72.14
2024-02-02T15:07:05.526Z,74.19
2024-02-02T15:09:33.349Z,75.93
2024-02-02T15:12:05.133Z,78.10
2024-02-02T15:14:33.055Z,81.36
2024-02-02T15:17:00.294Z,86.00
2024-02-02T15:19:27.688Z,87.03
2024-02-02T15:21:54.956Z,88.30
2024-02-02T15:24:23.762Z,90.22
2024-02-02T15:26:50.941Z,90.58
2024-02-02T15:29:18.377Z,92.00
2024-02-02T15:31:45.424Z,92.67
2024-02-02T15:34:13.108Z,94.65
2024-02-02T15:36:40.331Z,95.03
2024-02-02T15:39:19.906Z,94.14
2024-02-02T15:41:57.366Z,93.57
2024-02-02T15:44:25.491Z,96.30
2024-02-02T15:46:52.507Z,95.07
2024-02-02T15:49:30.116Z,100.00
2024-02-02T15:52:00.026Z,100.00
2024-02-02T15:54:29.215Z,100.00
2024-02-02T15:57:01.151Z,99.76
2024-02-02T15:59:29.852Z,100.00
2024-02-02T16:01:57.289Z,100.00
2024-02-02T16:04:25.576Z,100.00
2024-02-02T16:07:02.126Z,100.00
2024-02-02T16:09:29.423Z,100.00
2024-02-02T16:11:58.757Z,100.00
2024-02-02T16:14:26.005Z,100.00
2024-02-02T16:16:53.233Z,100.00
2024-02-02T16:19:20.470Z,100.00
2024-02-02T16:21:50.238Z,100.00
2024-02-02T16:24:18.257Z,100.00
2024-02-02T16:26:46.096Z,100.00
2024-02-02T16:29:15.322Z,100.00
2024-02-02T16:31:47.594Z,100.00
2024-02-02T16:34:15.004Z,100.00
2024-02-02T16:36:43.760Z,100.00
2024-02-02T16:39:11.477Z,100.00
2024-02-02T16:41:39.527Z,100.00
2024-02-02T16:44:07.715Z,100.00
2024-02-02T16:46:40.164Z,100.00
2024-02-02T16:49:07.936Z,100.00
2024-02-02T16:51:37.546Z,100.00
2024-02-02T16:54:06.821Z,100.00
2024-02-02T16:56:33.909Z,100.00
2024-02-02T16:59:01.734Z,100.00
2024-02-02T17:01:29.300Z,100.00
2024-02-02T17:03:59.112Z,100.00
2024-02-02T17:06:29.406Z,100.00
2024-02-02T17:08:57.002Z,100.00
2024-02-02T17:11:24.378Z,100.00
2024-02-02T17:13:51.518Z,100.00
2024-02-02T17:16:20.200Z,100.00
2024-02-02T17:18:48.117Z,100.00
2024-02-02T17:21:17.313Z,100.00
2024-02-02T17:23:44.427Z,100.00
2024-02-02T17:26:15.741Z,100.00
2024-02-02T17:28:43.811Z,100.00
2024-02-02T17:31:11.556Z,100.00
2024-02-02T17:33:40.561Z,100.00
2024-02-02T17:36:12.671Z,100.00
2024-02-02T17:38:42.870Z,100.00
2024-02-02T17:41:13.509Z,100.00
2024-02-02T17:43:42.783Z,100.00
2024-02-02T17:46:13.609Z,100.00
2024-02-02T17:48:41.256Z,100.00
2024-02-02T17:51:08.667Z,100.00
2024-02-02T17:53:38.439Z,100.00
2024-02-02T17:56:08.781Z,100.00
2024-02-02T17:58:39.512Z,100.00
2024-02-02T18:01:07.909Z,100.00
2024-02-02T18:03:36.126Z,100.00
2024-02-02T18:06:04.199Z,100.00
2024-02-02T18:08:33.170Z,100.00
2024-02-02T18:11:01.582Z,100.00
2024-02-02T18:13:31.374Z,100.00
2024-02-02T18:15:58.897Z,100.00
2024-02-02T18:18:26.589Z,100.00
2024-02-02T18:20:53.990Z,100.00
2024-02-02T18:23:21.492Z,100.00
2024-02-02T18:25:48.741Z,100.00
2024-02-02T18:28:16.406Z,100.00
2024-02-02T18:30:48.353Z,100.00
2024-02-02T18:33:15.866Z,100.00
2024-02-02T18:35:43.909Z,100.00
2024-02-02T18:38:11.520Z,100.00
2024-02-02T18:40:39.246Z,100.00
2024-02-02T18:43:06.729Z,100.00
2024-02-02T18:45:33.899Z,100.00
2024-02-02T18:48:03.494Z,100.00
2024-02-02T18:50:30.978Z,100.00
2024-02-02T18:52:58.610Z,100.00
2024-02-02T18:55:25.824Z,100.00
2024-02-02T18:57:53.270Z,100.00
2024-02-02T19:00:21.028Z,100.00
2024-02-02T19:02:48.369Z,100.00
2024-02-02T19:05:17.517Z,100.00
2024-02-02T19:07:45.356Z,100.00
2024-02-02T19:10:12.998Z,100.00
2024-02-02T19:12:41.695Z,100.00
2024-02-02T19:15:09.363Z,100.00
2024-02-02T19:17:36.753Z,100.00
2024-02-02T19:20:04.463Z,100.00
2024-02-02T19:22:33.423Z,100.00
2024-02-02T19:25:01.811Z,100.00
2024-02-02T19:27:30.919Z,100.00
2024-02-02T19:29:58.474Z,100.00
2024-02-02T19:32:26.510Z,100.00
2024-02-02T19:34:53.745Z,100.00
2024-02-02T19:37:21.389Z,100.00
2024-02-02T19:39:53.171Z,100.00
2024-02-02T19:42:20.826Z,100.00
2024-02-02T19:44:48.527Z,100.00
2024-02-02T19:47:16.837Z,100.00
2024-02-02T19:49:44.598Z,100.00
2024-02-02T19:52:11.733Z,100.00
2024-02-02T19:54:39.266Z,100.00
2024-02-02T19:57:08.832Z,100.00
2024-02-02T19:59:36.436Z,100.00
2024-02-02T20:02:03.665Z,100.00
2024-02-02T20:04:32.231Z,100.00
2024-02-02T20:06:59.926Z,100.00
2024-02-02T20:09:27.097Z,100.00
2024-02-02T20:11:55.665Z,100.00
2024-02-02T20:14:25.120Z,100.00
2024-02-02T20:16:53.057Z,100.00
2024-02-02T20:19:20.868Z,100.00
2024-02-02T20:21:48.461Z,100.00
2024-02-02T20:24:16.939Z,100.00
2024-02-02T20:26:44.507Z,100.00
2024-02-02T20:29:11.751Z,100.00
2024-02-02T20:31:43.826Z,100.00
2024-02-02T20:34:14.539Z,100.00
2024-02-02T20:36:43.282Z,100.00
2024-02-02T20:39:10.812Z,100.00
2024-02-02T20:41:38.678Z,100.00
2024-02-02T20:44:05.952Z,100.00
2024-02-02T20:46:33.645Z,100.00
2024-02-02T20:49:03.638Z,100.00
2024-02-02T20:51:31.290Z,100.00
2024-02-02T20:53:58.554Z,100.00
2024-02-02T20:56:26.010Z,100.00
2024-02-02T20:58:53.671Z,100.00
2024-02-02T21:01:21.713Z,100.00
2024-02-02T21:03:49.033Z,100.00
2024-02-02T21:06:19.285Z,100.00
2024-02-02T21:08:46.427Z,100.00
2024-02-02T21:11:13.854Z,100.00
2024-02-02T21:13:41.014Z,100.00
2024-02-02T21:16:08.237Z,100.00
2024-02-02T21:18:38.130Z,100.00
2024-02-02T21:21:05.617Z,100.00
2024-02-02T21:23:37.332Z,100.00
2024-02-02T21:26:05.168Z,100.00
2024-02-02T21:28:32.308Z,100.00
2024-02-02T21:31:00.185Z,100.00
2024-02-02T21:33:27.752Z,100.00
2024-02-02T21:35:55.485Z,100.00
2024-02-02T21:38:22.594Z,100.00
2024-02-02T21:40:51.560Z,100.00
2024-02-02T21:43:18.895Z,100.00
2024-02-02T21:45:46.285Z,100.00
2024-02-02T21:48:13.539Z,100.00
2024-02-02T21:50:40.727Z,100.00
2024-02-02T21:53:11.716Z,100.00
2024-02-02T21:55:38.813Z,100.00
2024-02-02T21:58:07.729Z,100.00
2024-02-02T22:00:35.080Z,100.00
2024-02-02T22:03:02.413Z,100.00
2024-02-02T22:05:29.924Z,100.00
2024-02-02T22:07:57.089Z,100.00
2024-02-02T22:10:24.296Z,100.00
2024-02-02T22:12:51.711Z,100.00
2024-02-02T22:15:21.521Z,100.00
2024-02-02T22:17:48.881Z,100.00
2024-02-02T22:20:16.058Z,100.00
2024-02-02T22:22:43.642Z,100.00
2024-02-02T22:25:11.201Z,100.00
2024-02-02T22:27:39.840Z,100.00
2024-02-02T22:30:08.530Z,100.00
2024-02-02T22:32:38.310Z,100.00
2024-02-02T22:35:06.539Z,100.00
2024-02-02T22:37:34.000Z,100.00
2024-02-02T22:40:00.982Z,100.00
2024-02-02T22:42:28.172Z,100.00
2024-02-02T22:44:55.330Z,100.00
2024-02-02T22:47:22.569Z,100.00
2024-02-02T22:49:51.685Z,100.00
2024-02-02T22:52:19.448Z,100.00
2024-02-02T22:54:46.864Z,100.00
2024-02-02T22:57:14.048Z,100.00
2024-02-02T22:59:45.310Z,100.00
2024-02-02T23:02:17.668Z,100.00
2024-02-02T23:04:44.751Z,100.00
2024-02-02T23:07:13.723Z,100.00
2024-02-02T23:09:41.385Z,100.00
2024-02-02T23:12:09.823Z,100.00
2024-02-02T23:14:39.254Z,100.00
2024-02-02T23:17:06.705Z,100.00
2024-02-02T23:19:35.869Z,100.00
2024-02-02T23:22:05.218Z,100.00
2024-02-02T23:24:34.210Z,100.00
2024-02-02T23:27:01.381Z,100.00
2024-02-02T23:29:28.580Z,100.00
2024-02-02T23:31:55.848Z,100.00
2024-02-02T23:34:23.817Z,100.00
2024-02-02T23:36:51.610Z,100.00
2024-02-02T23:39:20.683Z,100.00
2024-02-02T23:41:50.247Z,100.00
2024-02-02T23:44:17.714Z,100.00
2024-02-02T23:46:45.310Z,100.00
2024-02-02T23:49:14.048Z,100.00
2024-02-02T23:51:42.530Z,100.00
2024-02-02T23:54:09.638Z,100.00
2024-02-02T23:56:36.932Z,100.00
2024-02-02T23:59:06.208Z,100.00
